Time;durP1;ratioP1;P1;durP2;ratioP2;P2;SDS_P1;SDS_P2;PMS_P1;PMS_P2;Temp;Humidity;BMP_temperature;BMP_pressure;BME280_temperature;BME280_humidity;BME280_pressure;Samples;Min_cycle;Max_cycle;Signal;HPM_P1;HPM_P2
2021/03/27 00:02:37;;;;;;;13.50;4.00;;;7.00;99.90;;;;;;5017080;28;20701;-75
2021/03/27 00:05:34;;;;;;;7.13;3.20;;;7.00;99.90;;;;;;5009603;28;20184;-75
2021/03/27 00:08:10;;;;;;;7.30;2.43;;;7.10;99.90;;;;;;5017003;28;20291;-75
2021/03/27 00:10:46;;;;;;;8.43;2.40;;;7.00;99.90;;;;;;5034737;28;20183;-75
2021/03/27 00:13:31;;;;;;;11.00;2.40;;;7.00;99.90;;;;;;5034452;28;20168;-75
2021/03/27 00:16:15;;;;;;;7.87;2.83;;;7.00;99.90;;;;;;4997547;28;20165;-75
2021/03/27 00:18:46;;;;;;;8.77;2.20;;;7.00;99.90;;;;;;5026654;28;20191;-75
2021/03/27 00:21:24;;;;;;;9.33;2.07;;;6.90;99.90;;;;;;5034339;28;20184;-75
2021/03/27 00:24:08;;;;;;;6.77;1.70;;;6.90;99.90;;;;;;5034094;28;20218;-74
2021/03/27 00:26:39;;;;;;;6.20;1.90;;;7.00;99.90;;;;;;5034674;28;20169;-74
2021/03/27 00:29:23;;;;;;;9.97;2.23;;;6.90;99.90;;;;;;5016564;28;20283;-75
2021/03/27 00:32:53;;;;;;;12.87;2.27;;;7.00;99.90;;;;;;5034172;28;20229;-75
2021/03/27 00:35:32;;;;;;;12.00;2.33;;;7.00;99.90;;;;;;4950812;29;20185;-75
2021/03/27 00:38:02;;;;;;;5.37;1.73;;;6.90;99.90;;;;;;4954081;29;20190;-75
2021/03/27 00:40:33;;;;;;;6.50;2.27;;;6.90;99.90;;;;;;5000813;28;20192;-75
2021/03/27 00:43:06;;;;;;;14.00;2.40;;;6.90;99.90;;;;;;5016407;28;20164;-74
2021/03/27 00:45:40;;;;;;;3.87;2.30;;;6.80;99.90;;;;;;5034124;28;20172;-74
2021/03/27 00:48:16;;;;;;;10.20;2.50;;;6.80;99.90;;;;;;5032865;28;20200;-74
2021/03/27 00:51:01;;;;;;;13.97;2.70;;;6.80;99.90;;;;;;5016527;28;20192;-74
2021/03/27 00:53:40;;;;;;;8.30;2.17;;;6.80;99.90;;;;;;5033632;28;20168;-74
2021/03/27 00:56:11;;;;;;;3.73;2.17;;;6.80;99.90;;;;;;5033677;28;20172;-74
2021/03/27 00:58:45;;;;;;;10.07;2.37;;;6.80;99.90;;;;;;5033635;28;20275;-75
2021/03/27 01:01:12;;;;;;;12.37;3.33;;;6.70;99.90;;;;;;5033812;28;20535;-74
2021/03/27 01:03:46;;;;;;;6.13;2.10;;;6.60;99.90;;;;;;4996201;28;20562;-75
2021/03/27 01:06:18;;;;;;;5.70;2.67;;;6.50;99.90;;;;;;5013853;28;20185;-75
2021/03/27 01:08:48;;;;;;;11.00;2.67;;;6.50;99.90;;;;;;5013749;28;20204;-74
2021/03/27 01:11:30;;;;;;;5.80;2.20;;;6.50;99.90;;;;;;5012763;28;20168;-75
2021/03/27 01:13:59;;;;;;;9.87;2.20;;;6.50;99.90;;;;;;5015983;28;20172;-74
2021/03/27 01:16:31;;;;;;;13.03;2.63;;;6.50;99.90;;;;;;5015723;28;20255;-75
2021/03/27 01:19:03;;;;;;;8.87;2.47;;;6.40;99.90;;;;;;5033073;28;20658;-74
2021/03/27 01:21:33;;;;;;;8.37;1.70;;;6.40;99.90;;;;;;5033335;28;20203;-73
2021/03/27 01:24:01;;;;;;;12.73;2.10;;;6.30;99.90;;;;;;5031843;28;20180;-74
2021/03/27 01:26:48;;;;;;;10.43;2.20;;;6.30;99.90;;;;;;5015725;28;20180;-73
2021/03/27 01:29:23;;;;;;;10.00;2.10;;;6.20;99.90;;;;;;5015754;28;20204;-73
2021/03/27 01:32:01;;;;;;;9.40;2.37;;;6.20;99.90;;;;;;5015337;28;20207;-74
2021/03/27 01:34:40;;;;;;;13.87;2.43;;;6.10;99.90;;;;;;5031672;28;20263;-74
2021/03/27 01:37:17;;;;;;;12.00;2.57;;;6.20;99.90;;;;;;5015619;28;20186;-74
2021/03/27 01:39:53;;;;;;;10.30;2.10;;;6.10;99.90;;;;;;5015866;28;20176;-74
2021/03/27 01:42:51;;;;;;;11.33;2.43;;;6.10;99.90;;;;;;5015691;28;20179;-74
2021/03/27 01:45:46;;;;;;;12.13;2.47;;;6.10;99.90;;;;;;5015527;28;20176;-74
2021/03/27 01:48:21;;;;;;;18.63;3.00;;;6.10;99.90;;;;;;5015108;28;20196;-74
2021/03/27 01:50:53;;;;;;;8.77;2.50;;;6.10;99.90;;;;;;5015459;28;20658;-74
2021/03/27 01:53:37;;;;;;;10.80;2.40;;;6.10;99.90;;;;;;5032850;28;20247;-74
2021/03/27 01:56:40;;;;;;;10.03;2.80;;;6.00;99.90;;;;;;5033297;28;20171;-74
2021/03/27 01:59:26;;;;;;;8.27;2.43;;;6.00;99.90;;;;;;5034484;28;20183;-73
2021/03/27 02:01:51;;;;;;;11.20;3.20;;;6.00;99.90;;;;;;5018908;28;20687;-76
2021/03/27 02:04:20;;;;;;;8.07;2.50;;;6.00;99.90;;;;;;5037103;28;20251;-77
2021/03/27 02:06:56;;;;;;;5.73;2.60;;;6.00;99.90;;;;;;5037366;28;20226;-77
2021/03/27 02:09:52;;;;;;;20.33;2.73;;;6.00;99.90;;;;;;5037337;28;20299;-76
2021/03/27 02:12:30;;;;;;;14.37;2.40;;;6.10;99.90;;;;;;5037980;28;20183;-74
2021/03/27 02:15:36;;;;;;;15.93;2.43;;;6.10;99.90;;;;;;5040257;28;20175;-74
2021/03/27 02:18:14;;;;;;;5.80;2.40;;;6.20;99.90;;;;;;5031808;28;20568;-75
2021/03/27 02:21:12;;;;;;;11.27;2.90;;;6.30;99.90;;;;;;5036905;28;20179;-77
2021/03/27 02:24:08;;;;;;;11.77;3.03;;;6.40;99.90;;;;;;5036530;28;20168;-77
2021/03/27 02:27:07;;;;;;;23.10;2.37;;;6.40;99.90;;;;;;5018972;28;20183;-75
2021/03/27 02:29:56;;;;;;;12.87;2.83;;;6.50;99.90;;;;;;5036603;28;20203;-75
2021/03/27 02:32:33;;;;;;;18.30;3.07;;;6.60;99.90;;;;;;5036683;28;20711;-74
2021/03/27 02:35:36;;;;;;;17.47;4.73;;;6.60;99.90;;;;;;5018835;28;20177;-75
2021/03/27 02:38:23;;;;;;;15.10;3.00;;;6.70;99.90;;;;;;5019190;28;20563;-75
2021/03/27 02:41:05;;;;;;;8.50;2.70;;;6.70;99.90;;;;;;5036271;28;20176;-74
2021/03/27 02:43:38;;;;;;;12.77;3.00;;;6.80;99.90;;;;;;5036194;28;20172;-75
2021/03/27 02:46:06;;;;;;;17.80;3.63;;;6.80;99.90;;;;;;5036038;28;20180;-75
2021/03/27 02:49:02;;;;;;;18.77;3.10;;;6.90;99.90;;;;;;5018516;28;20217;-74
2021/03/27 02:51:35;;;;;;;9.70;2.67;;;7.00;99.90;;;;;;5018522;28;20663;-74
2021/03/27 02:54:39;;;;;;;22.43;3.43;;;7.10;99.90;;;;;;5036057;28;20755;-75
2021/03/27 02:57:19;;;;;;;13.67;2.80;;;7.00;99.90;;;;;;4936373;29;20225;-75
2021/03/27 02:59:55;;;;;;;13.40;3.33;;;7.10;99.90;;;;;;4936709;29;20171;-74
2021/03/27 03:02:51;;;;;;;13.27;2.60;;;7.10;99.90;;;;;;4999634;28;20562;-74
2021/03/27 03:05:43;;;;;;;9.00;2.67;;;7.10;99.90;;;;;;5001233;28;20189;-77
2021/03/27 03:08:35;;;;;;;16.10;3.07;;;7.00;99.90;;;;;;5030493;28;20600;-74
2021/03/27 03:11:20;;;;;;;22.77;3.13;;;7.00;99.90;;;;;;5033827;28;20342;-77
2021/03/27 03:14:24;;;;;;;10.57;3.30;;;6.90;99.90;;;;;;5017983;28;20172;-74
2021/03/27 03:17:16;;;;;;;12.43;2.57;;;7.00;99.90;;;;;;5018747;28;20183;-74
2021/03/27 03:19:57;;;;;;;10.60;2.30;;;7.10;99.90;;;;;;5018333;28;20176;-75
2021/03/27 03:22:36;;;;;;;21.57;3.53;;;7.10;99.90;;;;;;5018045;28;20601;-77
2021/03/27 03:25:16;;;;;;;13.50;3.17;;;7.10;99.90;;;;;;5035551;28;20168;-75
2021/03/27 03:27:41;;;;;;;16.03;3.77;;;7.00;99.90;;;;;;5035859;28;20164;-74
2021/03/27 03:30:35;;;;;;;18.27;2.77;;;7.10;99.90;;;;;;5035535;28;20271;-77
2021/03/27 03:33:22;;;;;;;15.80;2.50;;;7.00;99.90;;;;;;5035148;28;20164;-76
2021/03/27 03:36:04;;;;;;;21.13;2.77;;;6.80;99.90;;;;;;5036083;28;20251;-77
2021/03/27 03:38:48;;;;;;;20.23;2.77;;;6.70;99.90;;;;;;5034608;28;20179;-77
2021/03/27 03:41:17;;;;;;;17.10;2.63;;;6.60;99.90;;;;;;5035283;28;20260;-77
2021/03/27 03:43:56;;;;;;;17.87;2.27;;;6.50;99.90;;;;;;5017129;28;20208;-77
2021/03/27 03:46:47;;;;;;;14.87;2.70;;;6.40;99.90;;;;;;5017740;28;20175;-77
2021/03/27 03:49:32;;;;;;;10.17;2.53;;;6.40;99.90;;;;;;5035171;28;20204;-76
2021/03/27 03:52:06;;;;;;;23.93;3.83;;;6.40;99.90;;;;;;5017348;28;20176;-77
2021/03/27 03:54:57;;;;;;;17.23;2.87;;;6.40;99.90;;;;;;5034668;28;20245;-77
2021/03/27 03:57:31;;;;;;;14.73;2.93;;;6.50;99.90;;;;;;5017675;28;20282;-76
2021/03/27 04:00:14;;;;;;;23.87;3.20;;;6.60;99.90;;;;;;5035233;28;20174;-77
2021/03/27 04:03:07;;;;;;;23.20;3.43;;;6.60;99.90;;;;;;5035104;28;20218;-77
2021/03/27 04:06:02;;;;;;;18.80;3.37;;;6.70;99.90;;;;;;5015309;28;20179;-77
2021/03/27 04:08:40;;;;;;;14.50;3.53;;;6.70;99.90;;;;;;5024587;28;20227;-74
2021/03/27 04:11:34;;;;;;;21.03;3.20;;;6.80;99.90;;;;;;5017248;28;20207;-77
2021/03/27 04:14:05;;;;;;;18.50;2.60;;;6.90;99.90;;;;;;5034501;28;20215;-77
2021/03/27 04:16:33;;;;;;;25.20;3.63;;;6.80;99.90;;;;;;5034985;28;20218;-77
2021/03/27 04:19:21;;;;;;;24.83;3.67;;;6.70;99.90;;;;;;5016823;28;20586;-77
2021/03/27 04:21:54;;;;;;;12.33;2.50;;;6.70;99.90;;;;;;5033203;28;20218;-77
2021/03/27 04:24:38;;;;;;;16.20;2.50;;;6.60;99.90;;;;;;5034224;28;20231;-77
2021/03/27 04:27:24;;;;;;;14.50;3.33;;;6.50;99.90;;;;;;5034634;28;20172;-77
2021/03/27 04:29:59;;;;;;;9.17;1.80;;;6.50;99.90;;;;;;5016679;28;20203;-76
2021/03/27 04:32:40;;;;;;;10.30;2.00;;;6.50;99.90;;;;;;5016940;28;20252;-77
2021/03/27 04:35:11;;;;;;;4.73;1.80;;;6.40;99.90;;;;;;5016409;28;20175;-77
2021/03/27 04:38:05;;;;;;;9.53;1.93;;;6.30;99.90;;;;;;5034585;28;20176;-76
2021/03/27 04:40:41;;;;;;;4.30;1.60;;;6.20;99.90;;;;;;5016713;28;20176;-76
2021/03/27 04:43:22;;;;;;;9.37;2.10;;;6.20;99.90;;;;;;5016506;28;20163;-77
2021/03/27 04:45:54;;;;;;;5.97;1.63;;;6.20;99.90;;;;;;5014577;28;20223;-76
2021/03/27 04:48:28;;;;;;;5.57;1.40;;;6.20;99.90;;;;;;5014846;28;20203;-77
2021/03/27 04:51:19;;;;;;;4.50;1.50;;;6.20;99.90;;;;;;5019211;28;20176;-77
2021/03/27 04:54:03;;;;;;;7.50;1.90;;;6.20;99.90;;;;;;5015955;28;20570;-77
2021/03/27 04:57:10;;;;;;;11.33;1.50;;;6.20;99.90;;;;;;5016220;28;20218;-76
2021/03/27 04:59:54;;;;;;;4.90;1.20;;;6.20;99.90;;;;;;5034020;28;20218;-76
2021/03/27 05:02:33;;;;;;;7.90;1.60;;;6.10;99.90;;;;;;5016065;28;20180;-76
2021/03/27 05:05:30;;;;;;;10.87;1.67;;;6.20;99.90;;;;;;5033254;28;20175;-77
2021/03/27 05:08:13;;;;;;;6.70;1.80;;;6.20;99.90;;;;;;5033758;28;20175;-76
2021/03/27 05:10:40;;;;;;;11.97;1.60;;;6.10;99.90;;;;;;5015921;28;20549;-77
2021/03/27 05:13:22;;;;;;;13.50;2.00;;;6.10;99.90;;;;;;5032371;28;20164;-76
2021/03/27 05:16:07;;;;;;;7.07;1.57;;;6.10;99.90;;;;;;4996631;28;20176;-77
2021/03/27 05:19:02;;;;;;;4.70;1.40;;;6.20;99.90;;;;;;5013836;28;20705;-77
2021/03/27 05:21:37;;;;;;;6.17;1.20;;;6.20;99.90;;;;;;4990726;28;20579;-77
2021/03/27 05:24:11;;;;;;;11.27;1.40;;;6.20;99.90;;;;;;5021034;28;20198;-77
2021/03/27 05:26:46;;;;;;;8.97;1.60;;;6.00;99.90;;;;;;5033602;28;20163;-77
2021/03/27 05:29:14;;;;;;;8.07;1.50;;;5.80;99.90;;;;;;5033513;28;20231;-77
2021/03/27 05:32:17;;;;;;;8.90;1.60;;;5.70;99.90;;;;;;5032878;28;20297;-77
2021/03/27 05:34:51;;;;;;;8.40;2.07;;;5.60;99.90;;;;;;5032614;28;20634;-76
2021/03/27 05:37:44;;;;;;;5.53;1.43;;;5.50;99.90;;;;;;5033489;28;20581;-77
2021/03/27 05:40:24;;;;;;;7.07;1.53;;;5.40;99.90;;;;;;5033628;28;20176;-77
2021/03/27 05:43:13;;;;;;;6.67;1.33;;;5.40;99.90;;;;;;5015623;28;20640;-77
2021/03/27 05:45:50;;;;;;;9.80;1.70;;;5.40;99.90;;;;;;5033141;28;20668;-77
2021/03/27 05:48:52;;;;;;;7.23;2.03;;;5.40;99.90;;;;;;5015352;28;20195;-76
2021/03/27 05:51:37;;;;;;;7.73;1.53;;;5.30;99.90;;;;;;5033387;28;20174;-77
2021/03/27 05:54:11;;;;;;;6.77;1.27;;;5.30;99.90;;;;;;5013709;28;20181;-77
2021/03/27 05:56:55;;;;;;;10.40;2.43;;;5.30;99.90;;;;;;5013852;28;20167;-77
2021/03/27 06:00:02;;;;;;;5.03;2.33;;;5.30;99.90;;;;;;5012227;28;20548;-76
2021/03/27 06:03:04;;;;;;;7.00;2.70;;;5.40;99.90;;;;;;4952726;29;20383;-77
2021/03/27 06:05:39;;;;;;;12.20;3.30;;;5.30;99.90;;;;;;4936700;28;20174;-77
2021/03/27 06:08:13;;;;;;;8.07;3.17;;;5.40;99.90;;;;;;4998939;28;20214;-74
2021/03/27 06:10:57;;;;;;;12.80;3.67;;;5.50;99.90;;;;;;5032810;28;20194;-76
2021/03/27 06:13:45;;;;;;;11.43;3.50;;;5.60;99.90;;;;;;5032545;28;20180;-76
2021/03/27 06:16:19;;;;;;;8.23;3.17;;;5.70;99.90;;;;;;5033253;28;20179;-76
2021/03/27 06:18:59;;;;;;;11.80;3.57;;;5.80;99.90;;;;;;5033117;28;20651;-76
2021/03/27 06:22:03;;;;;;;19.90;4.00;;;6.10;99.90;;;;;;5033006;28;20172;-76
2021/03/27 06:24:51;;;;;;;16.07;3.40;;;6.40;99.90;;;;;;5012178;28;20173;-76
2021/03/27 06:27:54;;;;;;;7.83;2.70;;;6.70;99.90;;;;;;5012966;28;20169;-76
2021/03/27 06:30:56;;;;;;;10.63;2.50;;;6.90;99.90;;;;;;5012980;28;20543;-76
2021/03/27 06:34:03;;;;;;;11.73;2.50;;;6.90;99.90;;;;;;5001028;28;20192;-75
2021/03/27 06:37:05;;;;;;;12.60;2.07;;;7.00;99.90;;;;;;5001413;28;20216;-76
2021/03/27 06:39:43;;;;;;;14.87;3.47;;;6.90;99.90;;;;;;5032847;28;20230;-76
2021/03/27 06:42:33;;;;;;;9.80;1.90;;;7.00;99.90;;;;;;5032129;28;20183;-76
2021/03/27 06:45:46;;;;;;;19.50;2.80;;;6.90;99.90;;;;;;5032749;28;20203;-77
2021/03/27 06:48:24;;;;;;;12.60;2.03;;;7.10;99.90;;;;;;4936760;29;20273;-77
2021/03/27 06:51:02;;;;;;;13.30;2.23;;;7.20;99.90;;;;;;4936945;29;20640;-77
2021/03/27 06:53:50;;;;;;;10.07;2.90;;;7.20;99.90;;;;;;4989136;28;20218;-76
2021/03/27 06:56:43;;;;;;;13.57;2.50;;;7.30;99.90;;;;;;5018524;28;20176;-76
2021/03/27 06:59:36;;;;;;;15.03;1.93;;;7.30;99.90;;;;;;5036187;28;20249;-76
2021/03/27 07:02:39;;;;;;;15.40;2.97;;;7.60;99.90;;;;;;5035864;28;20633;-76
2021/03/27 07:05:42;;;;;;;11.33;2.13;;;7.80;99.90;;;;;;5018042;28;20183;-76
2021/03/27 07:08:17;;;;;;;9.90;2.13;;;8.00;99.90;;;;;;5035572;28;20199;-76
2021/03/27 07:11:10;;;;;;;10.97;1.77;;;8.40;99.90;;;;;;5018041;28;20683;-76
2021/03/27 07:13:57;;;;;;;11.10;2.30;;;8.80;99.90;;;;;;5035681;28;20222;-76
2021/03/27 07:16:47;;;;;;;13.40;2.07;;;9.50;99.90;;;;;;5037812;28;20179;-76
2021/03/27 07:19:44;;;;;;;12.02;2.03;;;10.60;99.90;;;;;;5037245;28;20168;-77
2021/03/27 07:22:28;;;;;;;9.00;2.78;;;10.60;99.90;;;;;;5036542;28;20180;-75
2021/03/27 07:24:54;;;;;;;8.95;2.22;;;10.50;99.90;;;;;;5019358;28;20173;-75
2021/03/27 07:27:56;;;;;;;15.88;2.60;;;11.40;99.90;;;;;;5037236;28;20179;-75
2021/03/27 07:30:33;;;;;;;7.75;2.20;;;12.30;99.90;;;;;;5036842;28;20171;-75
2021/03/27 07:33:17;;;;;;;12.70;2.67;;;11.30;99.90;;;;;;5034535;28;20241;-75
2021/03/27 07:36:19;;;;;;;9.10;1.80;;;10.30;99.90;;;;;;5035847;28;20229;-75
2021/03/27 07:39:09;;;;;;;10.98;2.60;;;10.40;99.90;;;;;;5018506;28;20182;-76
2021/03/27 07:41:47;;;;;;;11.90;2.70;;;11.90;99.90;;;;;;5035570;28;20192;-75
2021/03/27 07:44:42;;;;;;;12.55;2.50;;;13.10;99.90;;;;;;5036169;28;20202;-76
2021/03/27 07:47:17;;;;;;;9.25;2.20;;;14.30;99.90;;;;;;5018296;28;20172;-76
2021/03/27 07:50:20;;;;;;;12.23;2.85;;;14.50;99.90;;;;;;5018087;28;20202;-75
2021/03/27 07:53:13;;;;;;;9.98;2.35;;;13.60;99.90;;;;;;5035890;28;20656;-75
2021/03/27 07:56:13;;;;;;;11.55;2.47;;;13.30;99.90;;;;;;5018025;28;20176;-76
2021/03/27 07:58:54;;;;;;;12.60;2.63;;;12.70;99.90;;;;;;5017538;28;20230;-77
2021/03/27 08:01:53;;;;;;;13.40;2.50;;;12.30;99.90;;;;;;5035571;28;20164;-76
2021/03/27 08:04:38;;;;;;;14.55;3.03;;;11.60;99.90;;;;;;5021050;28;20223;-75
2021/03/27 08:07:37;;;;;;;7.50;2.70;;;11.10;99.90;;;;;;5048449;28;20649;-76
2021/03/27 08:10:21;;;;;;;19.73;3.13;;;10.50;99.90;;;;;;4977476;28;20231;-76
2021/03/27 08:12:56;;;;;;;7.57;2.15;;;12.20;99.90;;;;;;5035481;28;20187;-76
2021/03/27 08:15:47;;;;;;;11.20;2.95;;;15.00;99.90;;;;;;5017480;28;20176;-76
2021/03/27 08:18:53;;;;;;;7.85;2.78;;;15.50;99.90;;;;;;5031137;28;20192;-76
2021/03/27 08:21:47;;;;;;;9.40;2.42;;;15.80;99.90;;;;;;5034686;28;20156;-76
2021/03/27 08:24:19;;;;;;;11.15;2.53;;;16.50;99.90;;;;;;5034457;28;20706;-73
2021/03/27 08:27:26;;;;;;;7.90;2.75;;;17.10;99.90;;;;;;5035355;28;20405;-73
2021/03/27 08:30:23;;;;;;;11.05;2.90;;;17.60;99.90;;;;;;5034094;28;20250;-74
2021/03/27 08:33:27;;;;;;;11.45;2.88;;;18.00;99.90;;;;;;5016870;28;20176;-73
2021/03/27 08:36:24;;;;;;;14.75;2.85;;;16.90;99.90;;;;;;5035051;28;20180;-73
2021/03/27 08:39:22;;;;;;;11.57;2.88;;;16.20;99.90;;;;;;5001197;28;20188;-75
2021/03/27 08:42:06;;;;;;;9.60;2.75;;;16.80;99.90;;;;;;4985295;28;20188;-75
2021/03/27 08:44:39;;;;;;;15.68;2.97;;;16.90;99.90;;;;;;5034863;28;20164;-74
2021/03/27 08:47:25;;;;;;;14.73;3.20;;;14.90;99.90;;;;;;5033934;28;20175;-75
2021/03/27 08:50:10;;;;;;;17.55;2.75;;;13.40;99.90;;;;;;5019061;28;20779;-74
2021/03/27 08:53:23;;;;;;;10.25;2.80;;;12.30;99.90;;;;;;5016617;28;20191;-75
2021/03/27 08:56:14;;;;;;;15.10;3.53;;;11.40;99.90;;;;;;4953444;29;20183;-75
2021/03/27 08:59:13;;;;;;;13.25;2.70;;;10.60;99.90;;;;;;4953590;29;20565;-75
2021/03/27 09:01:41;;;;;;;10.50;2.50;;;10.50;99.90;;;;;;5021636;28;20180;-74
2021/03/27 09:04:25;;;;;;;11.88;3.10;;;11.00;99.90;;;;;;5033675;28;20164;-75
2021/03/27 09:07:03;;;;;;;14.52;2.92;;;11.30;99.90;;;;;;5016208;28;20168;-75
2021/03/27 09:10:15;;;;;;;14.15;2.67;;;11.30;99.90;;;;;;5018335;28;20243;-75
2021/03/27 09:13:06;;;;;;;13.50;3.20;;;11.50;99.90;;;;;;5015422;28;20171;-75
2021/03/27 09:16:15;;;;;;;13.48;2.80;;;12.10;99.90;;;;;;5033243;28;20171;-74
2021/03/27 09:18:59;;;;;;;8.75;2.50;;;13.80;99.90;;;;;;5032077;28;20200;-74
2021/03/27 09:21:39;;;;;;;12.00;3.00;;;15.10;99.90;;;;;;5033648;28;20171;-74
2021/03/27 09:24:24;;;;;;;14.05;2.92;;;15.90;99.90;;;;;;5033341;28;20640;-74
2021/03/27 09:27:16;;;;;;;9.55;2.40;;;15.00;99.90;;;;;;5015643;28;20667;-75
2021/03/27 09:29:57;;;;;;;8.95;2.13;;;15.30;99.90;;;;;;5015607;28;20203;-74
2021/03/27 09:32:50;;;;;;;9.77;2.65;;;15.10;99.90;;;;;;5033097;28;20167;-74
2021/03/27 09:35:25;;;;;;;10.27;2.72;;;13.50;99.90;;;;;;5015198;28;20203;-74
2021/03/27 09:38:36;;;;;;;9.73;2.38;;;12.50;99.90;;;;;;5033655;28;20660;-74
2021/03/27 09:41:13;;;;;;;12.60;2.88;;;12.60;99.90;;;;;;5029617;28;20194;-73
2021/03/27 09:44:07;;;;;;;8.10;2.50;;;14.50;99.90;;;;;;5007102;28;20234;-74
2021/03/27 09:47:05;;;;;;;2.75;1.40;;;16.30;99.90;;;;;;5031452;28;20271;-74
2021/03/27 09:49:57;;;;;;;5.50;1.52;;;17.90;99.90;;;;;;5029947;28;20226;-73
2021/03/27 09:53:10;;;;;;;3.92;1.65;;;18.80;99.90;;;;;;5033260;28;20190;-73
2021/03/27 09:55:38;;;;;;;6.43;1.70;;;20.40;99.90;;;;;;5033082;28;20176;-72
2021/03/27 09:58:15;;;;;;;3.88;1.73;;;21.30;96.90;;;;;;5032540;28;20187;-73
2021/03/27 10:00:54;;;;;;;6.50;1.85;;;21.40;96.10;;;;;;5033056;28;20163;-73
2021/03/27 10:03:39;;;;;;;7.20;2.05;;;21.30;95.50;;;;;;5015304;28;20614;-73
2021/03/27 10:06:43;;;;;;;8.88;2.03;;;21.70;95.10;;;;;;5014915;28;20246;-73
2021/03/27 10:09:36;;;;;;;6.00;2.00;;;23.10;91.00;;;;;;5014870;28;20212;-73
2021/03/27 10:12:22;;;;;;;3.50;1.52;;;23.20;90.20;;;;;;5032681;28;20200;-75
2021/03/27 10:14:55;;;;;;;4.40;1.90;;;22.70;89.10;;;;;;5033089;28;20168;-77
2021/03/27 10:17:40;;;;;;;7.50;1.65;;;22.50;90.50;;;;;;5032327;28;20628;-77
2021/03/27 10:20:44;;;;;;;5.32;1.58;;;23.00;86.10;;;;;;5013532;28;20164;-76
2021/03/27 10:23:39;;;;;;;8.38;1.98;;;23.30;86.30;;;;;;4997924;28;20547;-76
2021/03/27 10:26:08;;;;;;;3.60;1.45;;;22.60;87.80;;;;;;5021804;28;20180;-76
2021/03/27 10:28:42;;;;;;;4.88;1.75;;;23.00;85.90;;;;;;5034752;28;20218;-76
2021/03/27 10:31:18;;;;;;;4.40;1.73;;;23.40;82.60;;;;;;5035473;28;20186;-77
2021/03/27 10:33:51;;;;;;;4.03;1.45;;;22.40;85.80;;;;;;5035184;28;20628;-76
2021/03/27 10:36:59;;;;;;;6.75;1.73;;;22.30;85.20;;;;;;5034404;28;20200;-77
2021/03/27 10:39:47;;;;;;;8.85;2.08;;;20.20;84.60;;;;;;4988638;28;20220;-76
2021/03/27 10:42:39;;;;;;;8.43;1.70;;;18.00;90.20;;;;;;5017726;28;20644;-76
2021/03/27 10:45:26;;;;;;;7.28;1.90;;;17.80;91.20;;;;;;5034895;28;20187;-77
2021/03/27 10:48:04;;;;;;;10.88;1.95;;;20.30;90.60;;;;;;5030671;28;20176;-75
2021/03/27 10:50:48;;;;;;;5.25;1.48;;;18.20;90.20;;;;;;5035715;28;20188;-75
2021/03/27 10:53:30;;;;;;;9.00;1.65;;;15.80;90.10;;;;;;5032228;28;20179;-76
2021/03/27 10:56:26;;;;;;;8.30;1.50;;;14.60;91.90;;;;;;5015550;28;20187;-77
2021/03/27 10:59:01;;;;;;;7.38;1.42;;;14.60;93.60;;;;;;5035679;28;20532;-76
2021/03/27 11:02:04;;;;;;;8.10;1.48;;;14.60;93.90;;;;;;5016668;28;20179;-75
2021/03/27 11:05:09;;;;;;;3.47;1.45;;;15.60;93.40;;;;;;5035883;28;20186;-74
2021/03/27 11:08:08;;;;;;;7.28;1.70;;;16.60;92.20;;;;;;5019026;28;20235;-76
2021/03/27 11:11:07;;;;;;;4.43;1.40;;;19.50;90.70;;;;;;5034176;28;20234;-75
2021/03/27 11:13:47;;;;;;;5.97;1.52;;;20.40;84.40;;;;;;5018594;28;20172;-77
2021/03/27 11:16:20;;;;;;;6.45;1.90;;;19.70;89.60;;;;;;5034384;28;20180;-75
2021/03/27 11:19:30;;;;;;;5.55;1.75;;;20.90;83.90;;;;;;5034146;28;20179;-76
2021/03/27 11:22:30;;;;;;;9.73;1.50;;;21.50;84.30;;;;;;5028450;28;20180;-76
2021/03/27 11:25:25;;;;;;;7.53;2.45;;;21.00;83.20;;;;;;4981938;28;20269;-76
2021/03/27 11:28:08;;;;;;;7.55;1.77;;;20.10;86.10;;;;;;5031365;28;20771;-75
2021/03/27 11:30:55;;;;;;;3.85;1.90;;;19.50;87.30;;;;;;5016899;28;20188;-76
2021/03/27 11:33:35;;;;;;;7.05;1.63;;;18.60;87.60;;;;;;5034445;28;20262;-76
2021/03/27 11:36:30;;;;;;;2.65;1.50;;;19.80;87.70;;;;;;5034013;28;20212;-74
2021/03/27 11:39:12;;;;;;;6.40;1.48;;;20.80;85.90;;;;;;5028277;28;20204;-74
2021/03/27 11:41:57;;;;;;;5.20;1.70;;;21.70;84.90;;;;;;5035322;28;20167;-77
2021/03/27 11:44:43;;;;;;;4.78;1.70;;;22.20;80.70;;;;;;5016981;28;20168;-74
2021/03/27 11:47:30;;;;;;;8.32;2.50;;;21.30;78.80;;;;;;5034517;28;20643;-74
2021/03/27 11:50:13;;;;;;;5.10;1.50;;;22.00;82.20;;;;;;5015540;28;20203;-74
2021/03/27 11:52:54;;;;;;;10.02;1.85;;;20.50;81.40;;;;;;5016735;28;20180;-74
2021/03/27 11:55:31;;;;;;;6.45;1.65;;;20.60;83.50;;;;;;5016974;28;20180;-75
2021/03/27 11:58:18;;;;;;;7.68;2.00;;;21.80;83.00;;;;;;5015598;28;20198;-74
2021/03/27 12:01:03;;;;;;;4.50;1.50;;;21.10;81.10;;;;;;5034314;28;20636;-74
2021/03/27 12:03:56;;;;;;;9.38;1.80;;;21.50;81.60;;;;;;5035052;28;20155;-75
2021/03/27 12:06:54;;;;;;;5.60;1.60;;;21.90;79.10;;;;;;5016631;28;20173;-75
2021/03/27 12:09:25;;;;;;;5.25;2.22;;;21.30;79.40;;;;;;5016142;28;20307;-74
2021/03/27 12:12:08;;;;;;;8.63;1.77;;;20.90;79.80;;;;;;5033450;28;20237;-74
2021/03/27 12:14:49;;;;;;;4.15;1.63;;;20.20;79.00;;;;;;5034765;28;20632;-75
2021/03/27 12:17:25;;;;;;;11.00;2.25;;;19.30;80.80;;;;;;5032735;28;20581;-74
2021/03/27 12:19:51;;;;;;;9.95;2.88;;;19.80;80.50;;;;;;5034653;28;20523;-75
2021/03/27 12:22:57;;;;;;;6.25;1.75;;;19.60;81.00;;;;;;5033858;28;20258;-75
2021/03/27 12:25:53;;;;;;;6.53;1.42;;;20.20;80.60;;;;;;4972798;28;20186;-76
2021/03/27 12:28:30;;;;;;;7.03;1.77;;;21.00;80.30;;;;;;5015762;28;20567;-75
2021/03/27 12:31:11;;;;;;;10.07;1.70;;;21.10;77.10;;;;;;5029650;28;20208;-74
2021/03/27 12:33:59;;;;;;;11.32;1.70;;;19.20;80.00;;;;;;5033193;28;20574;-75
2021/03/27 12:36:36;;;;;;;5.68;1.58;;;18.10;84.60;;;;;;5034063;28;20241;-75
2021/03/27 12:39:28;;;;;;;7.38;1.65;;;17.30;83.80;;;;;;5032138;28;20246;-75
2021/03/27 12:41:53;;;;;;;5.90;1.83;;;16.30;88.00;;;;;;5033518;28;20656;-74
2021/03/27 12:44:51;;;;;;;5.60;1.83;;;17.50;89.30;;;;;;5016677;28;20190;-75
2021/03/27 12:47:19;;;;;;;7.38;1.50;;;18.90;85.30;;;;;;5030093;28;20184;-76
2021/03/27 12:50:07;;;;;;;8.20;1.98;;;20.00;84.40;;;;;;5014256;28;20795;-75
2021/03/27 12:52:46;;;;;;;10.50;1.70;;;19.60;84.80;;;;;;5032433;28;20186;-75
2021/03/27 12:55:25;;;;;;;8.57;1.95;;;19.20;82.80;;;;;;5034366;28;20163;-75
2021/03/27 12:58:01;;;;;;;8.95;2.40;;;18.50;86.60;;;;;;5030571;28;20188;-74
2021/03/27 13:00:51;;;;;;;6.30;1.60;;;17.60;88.70;;;;;;5031946;28;20322;-74
2021/03/27 13:03:50;;;;;;;8.07;2.28;;;16.50;88.70;;;;;;5034202;28;20159;-75
2021/03/27 13:06:37;;;;;;;13.88;2.28;;;15.60;91.50;;;;;;5015405;28;20208;-75
2021/03/27 13:09:12;;;;;;;6.57;1.90;;;15.10;92.60;;;;;;5033687;28;20219;-75
2021/03/27 13:11:44;;;;;;;8.40;1.67;;;14.90;92.50;;;;;;5033303;28;20542;-75
2021/03/27 13:14:28;;;;;;;6.15;1.98;;;14.80;93.30;;;;;;5033100;28;20176;-74
2021/03/27 13:17:02;;;;;;;8.15;2.45;;;14.70;92.80;;;;;;5031887;28;20182;-74
2021/03/27 13:19:41;;;;;;;8.30;2.03;;;14.40;93.80;;;;;;5014450;28;20186;-74
2021/03/27 13:22:27;;;;;;;9.52;1.88;;;14.30;94.40;;;;;;5015705;28;20278;-74
2021/03/27 13:24:53;;;;;;;7.30;1.90;;;14.30;93.70;;;;;;5034256;28;20247;-74
2021/03/27 13:27:46;;;;;;;6.00;2.03;;;14.40;94.70;;;;;;5031624;28;20262;-74
2021/03/27 13:30:30;;;;;;;13.30;2.63;;;14.50;93.60;;;;;;5015493;28;20679;-75
2021/03/27 13:33:10;;;;;;;10.23;1.90;;;14.20;93.80;;;;;;5032943;28;20405;-74
2021/03/27 13:35:51;;;;;;;9.40;1.92;;;14.00;94.40;;;;;;5015791;28;20953;-76
2021/03/27 13:38:40;;;;;;;6.72;2.25;;;14.10;95.50;;;;;;5014527;28;20177;-74
2021/03/27 13:41:37;;;;;;;8.60;2.28;;;13.90;94.80;;;;;;5018691;28;20183;-74
2021/03/27 13:44:17;;;;;;;9.90;2.78;;;13.30;95.80;;;;;;5014116;28;20188;-74
2021/03/27 13:46:59;;;;;;;6.60;1.80;;;13.50;97.00;;;;;;5033346;28;20211;-74
2021/03/27 13:49:34;;;;;;;6.28;1.75;;;13.80;96.20;;;;;;5032361;28;20208;-74
2021/03/27 13:52:11;;;;;;;5.75;1.88;;;13.90;94.70;;;;;;5033477;28;20175;-74
2021/03/27 13:55:06;;;;;;;4.97;1.45;;;14.00;94.90;;;;;;5017443;28;20507;-75
2021/03/27 13:57:36;;;;;;;7.70;1.70;;;13.90;94.00;;;;;;5029714;28;20234;-74
2021/03/27 14:00:35;;;;;;;5.90;1.38;;;13.90;93.40;;;;;;5040632;28;20211;-74
2021/03/27 14:03:23;;;;;;;5.57;1.75;;;14.10;93.90;;;;;;5034051;28;20164;-75
2021/03/27 14:06:11;;;;;;;6.65;1.98;;;14.60;93.70;;;;;;5034611;28;20184;-75
2021/03/27 14:09:11;;;;;;;6.65;1.40;;;15.00;92.80;;;;;;5046235;28;20196;-74
2021/03/27 14:12:02;;;;;;;4.93;1.60;;;14.90;92.60;;;;;;5039705;28;20233;-75
2021/03/27 14:14:43;;;;;;;8.07;1.95;;;14.80;91.80;;;;;;5021424;28;20171;-75
2021/03/27 14:17:30;;;;;;;4.88;1.80;;;14.90;92.90;;;;;;5037897;28;20187;-74
2021/03/27 14:20:10;;;;;;;3.70;1.65;;;14.90;92.90;;;;;;5039912;28;20180;-74
2021/03/27 14:23:15;;;;;;;7.13;2.00;;;15.00;92.00;;;;;;5021394;28;20317;-74